createdAt,value
2018-10-04T00:01:13.409Z,8.61
2018-10-04T00:06:16.695Z,8.81
2018-10-04T00:11:19.870Z,8.99
2018-10-04T00:16:23.094Z,9.24
2018-10-04T00:21:26.380Z,9.43
2018-10-04T00:26:29.618Z,9.44
2018-10-04T00:31:32.839Z,9.43
2018-10-04T00:36:35.934Z,9.30
2018-10-04T00:41:39.160Z,9.43
2018-10-04T00:46:42.326Z,9.49
2018-10-04T00:51:45.533Z,9.54
2018-10-04T00:56:48.876Z,9.56
2018-10-04T01:01:52.284Z,9.54
2018-10-04T01:06:55.634Z,9.15
2018-10-04T01:11:58.822Z,9.11
2018-10-04T01:17:01.992Z,9.14
2018-10-04T01:22:05.135Z,9.21
2018-10-04T01:27:09.133Z,9.24
2018-10-04T01:32:12.237Z,9.29
2018-10-04T01:37:15.472Z,9.17
2018-10-04T01:42:18.789Z,9.07
2018-10-04T01:47:22.195Z,9.02
2018-10-04T01:52:25.344Z,9.02
2018-10-04T01:57:28.509Z,8.94
2018-10-04T02:02:31.814Z,8.93
2018-10-04T02:07:34.983Z,8.75
2018-10-04T02:12:38.135Z,8.62
2018-10-04T02:17:41.302Z,8.45
2018-10-04T02:22:44.505Z,8.34
2018-10-04T02:27:47.768Z,8.24
2018-10-04T02:32:51.026Z,8.16
2018-10-04T02:37:54.395Z,8.05
2018-10-04T02:42:57.719Z,8.05
2018-10-04T02:48:00.988Z,8.00
2018-10-04T02:53:04.001Z,7.98
2018-10-04T02:58:07.200Z,7.90
2018-10-04T03:03:10.455Z,7.94
2018-10-04T03:08:13.604Z,7.98
2018-10-04T03:13:16.928Z,7.99
2018-10-04T03:18:20.118Z,7.93
2018-10-04T03:23:23.368Z,7.96
2018-10-04T03:28:27.404Z,7.89
2018-10-04T03:33:30.548Z,8.02
2018-10-04T03:38:33.749Z,8.13
2018-10-04T03:43:37.079Z,8.25
2018-10-04T03:48:40.677Z,8.20
2018-10-04T03:53:43.832Z,8.18
2018-10-04T03:58:47.070Z,8.00
2018-10-04T04:03:50.478Z,7.82
2018-10-04T04:08:53.635Z,7.68
2018-10-04T04:13:57.176Z,7.46
2018-10-04T04:19:00.505Z,7.36
2018-10-04T04:24:03.727Z,7.25
2018-10-04T04:29:06.903Z,7.13
2018-10-04T04:34:10.823Z,6.97
2018-10-04T04:39:13.997Z,6.89
2018-10-04T04:44:17.156Z,6.80
2018-10-04T04:49:20.478Z,6.72
2018-10-04T04:55:38.634Z,6.72
2018-10-04T05:00:41.877Z,6.71
2018-10-04T05:05:45.100Z,6.83
2018-10-04T05:10:48.420Z,6.92
2018-10-04T05:15:52.010Z,6.85
2018-10-04T05:20:55.563Z,6.88
2018-10-04T05:25:58.941Z,7.08
2018-10-04T05:31:02.173Z,7.37
2018-10-04T05:36:05.345Z,7.57
2018-10-04T05:41:08.953Z,7.78
2018-10-04T05:46:12.145Z,7.92
2018-10-04T05:51:16.256Z,7.96
2018-10-04T05:56:19.654Z,8.01
2018-10-04T06:01:22.904Z,8.10
2018-10-04T06:06:26.468Z,8.18
2018-10-04T06:11:29.638Z,8.36
2018-10-04T06:16:32.813Z,8.63
2018-10-04T06:21:37.316Z,8.77
2018-10-04T06:26:40.547Z,8.91
2018-10-04T06:31:46.175Z,8.97
2018-10-04T06:36:49.605Z,9.11
2018-10-04T06:41:52.914Z,9.55
2018-10-04T06:46:56.133Z,10.07
2018-10-04T06:51:59.362Z,10.52
2018-10-04T06:57:02.575Z,10.70
2018-10-04T07:02:05.834Z,11.08
2018-10-04T07:07:09.742Z,11.56
2018-10-04T07:12:12.995Z,11.59
2018-10-04T07:17:16.209Z,11.48
2018-10-04T07:22:21.305Z,11.23
2018-10-04T07:27:24.541Z,11.47
2018-10-04T07:32:27.792Z,12.23
2018-10-04T07:37:30.995Z,12.60
2018-10-04T07:42:34.691Z,13.17
2018-10-04T07:47:37.997Z,13.61
2018-10-04T07:52:41.246Z,13.32
2018-10-04T07:57:44.391Z,13.81
2018-10-04T08:02:47.827Z,13.61
2018-10-04T08:07:51.207Z,13.85
2018-10-04T08:12:54.526Z,13.99
2018-10-04T08:17:57.698Z,14.29
2018-10-04T08:23:01.986Z,13.93
2018-10-04T08:28:05.563Z,13.73
2018-10-04T08:33:15.684Z,14.14
2018-10-04T08:38:21.305Z,13.89
2018-10-04T08:43:25.247Z,13.73
2018-10-04T08:48:30.633Z,13.65
2018-10-04T08:53:34.947Z,13.96
2018-10-04T08:58:39.082Z,13.96
2018-10-04T09:03:42.745Z,14.15
2018-10-04T09:08:47.073Z,13.91
2018-10-04T09:13:50.865Z,14.20
2018-10-04T09:18:54.095Z,14.03
2018-10-04T09:23:57.341Z,14.15
2018-10-04T09:29:00.642Z,14.07
2018-10-04T09:34:03.946Z,13.88
2018-10-04T09:39:08.989Z,13.69
2018-10-04T09:44:12.173Z,13.74
2018-10-04T09:49:15.370Z,13.81
2018-10-04T09:54:18.774Z,14.26
2018-10-04T09:59:22.112Z,14.81
2018-10-04T10:04:25.515Z,14.98
2018-10-04T10:09:28.978Z,15.40
2018-10-04T10:14:32.163Z,15.50
2018-10-04T10:19:35.764Z,15.27
2018-10-04T10:24:38.927Z,15.14
2018-10-04T10:29:42.218Z,14.52
2018-10-04T10:34:45.415Z,14.42
2018-10-04T10:39:48.930Z,14.08
2018-10-04T10:44:52.155Z,14.10
2018-10-04T10:49:55.420Z,14.16
2018-10-04T10:54:58.919Z,14.50
2018-10-04T11:00:02.100Z,14.96
2018-10-04T11:05:05.342Z,15.08
2018-10-04T11:10:08.150Z,15.20
2018-10-04T11:15:11.283Z,15.71
2018-10-04T11:20:14.480Z,16.12
2018-10-04T11:25:18.145Z,16.44
2018-10-04T11:30:21.739Z,16.63
2018-10-04T11:35:25.104Z,17.60
2018-10-04T11:40:28.352Z,17.77
2018-10-04T11:45:31.507Z,17.68
2018-10-04T11:50:34.840Z,17.60
2018-10-04T11:55:37.986Z,17.14
2018-10-04T12:00:41.153Z,17.38
2018-10-04T12:05:44.378Z,17.85
2018-10-04T12:10:47.972Z,17.88
2018-10-04T12:15:51.249Z,17.07
2018-10-04T12:20:54.525Z,16.78
2018-10-04T12:25:58.100Z,17.16
2018-10-04T12:31:01.639Z,17.16
2018-10-04T12:36:04.767Z,17.12
2018-10-04T12:41:07.963Z,17.18
2018-10-04T12:46:11.139Z,17.48
2018-10-04T12:51:14.350Z,17.89
2018-10-04T12:56:17.594Z,18.09
2018-10-04T13:01:20.807Z,17.99
2018-10-04T13:06:24.237Z,17.92
2018-10-04T13:11:27.378Z,17.44
2018-10-04T13:16:30.642Z,17.32
2018-10-04T13:21:34.021Z,17.11
2018-10-04T13:26:37.159Z,16.98
2018-10-04T13:31:40.318Z,16.61
2018-10-04T13:36:43.516Z,16.79
2018-10-04T13:41:47.575Z,16.76
2018-10-04T13:46:50.884Z,16.90
2018-10-04T13:51:54.142Z,17.19
2018-10-04T13:56:57.393Z,17.00
2018-10-04T14:02:00.557Z,16.69
2018-10-04T14:07:03.682Z,16.65
2018-10-04T14:12:06.864Z,16.82
2018-10-04T14:17:10.572Z,16.94
2018-10-04T14:22:14.296Z,16.83
2018-10-04T14:27:17.613Z,16.59
2018-10-04T14:32:20.978Z,16.53
2018-10-04T14:37:24.477Z,16.32
2018-10-04T14:42:27.705Z,16.36
2018-10-04T14:47:31.023Z,16.28
2018-10-04T14:52:34.129Z,15.94
2018-10-04T14:57:37.320Z,15.88
2018-10-04T15:02:42.158Z,15.72
2018-10-04T15:07:46.104Z,15.51
2018-10-04T15:12:49.827Z,15.58
2018-10-04T15:17:54.125Z,15.58
2018-10-04T15:22:57.967Z,15.48
2018-10-04T15:28:01.281Z,15.42
2018-10-04T15:38:06.869Z,15.44
2018-10-04T15:43:10.748Z,15.30
2018-10-04T15:48:14.295Z,15.14
2018-10-04T15:53:17.766Z,15.11
2018-10-04T15:58:20.933Z,14.94
2018-10-04T16:03:24.775Z,14.86
2018-10-04T16:08:28.377Z,14.77
2018-10-04T16:13:31.641Z,14.71
2018-10-04T16:18:34.847Z,14.67
2018-10-04T16:23:38.231Z,14.72
2018-10-04T16:28:41.638Z,14.67
2018-10-04T16:33:44.778Z,14.53
2018-10-04T16:38:48.176Z,14.51
2018-10-04T16:43:51.429Z,14.37
2018-10-04T16:48:54.628Z,14.27
2018-10-04T16:53:58.309Z,14.19
2018-10-04T16:59:01.588Z,14.02
2018-10-04T17:04:04.805Z,13.97
2018-10-04T17:09:08.773Z,13.68
2018-10-04T17:14:12.441Z,13.43
2018-10-04T17:19:15.800Z,13.18
2018-10-04T17:24:19.505Z,13.00
2018-10-04T17:29:23.412Z,12.84
2018-10-04T17:34:26.679Z,12.60
2018-10-04T17:39:30.111Z,12.36
2018-10-04T17:44:33.325Z,12.06
2018-10-04T17:49:36.498Z,11.88
2018-10-04T17:54:39.746Z,11.76
2018-10-04T17:59:43.070Z,11.72
2018-10-04T18:04:46.410Z,11.71
2018-10-04T18:09:50.951Z,11.78
2018-10-04T18:14:54.899Z,11.84
2018-10-04T18:19:58.204Z,11.91
2018-10-04T18:25:02.319Z,11.96
2018-10-04T18:30:06.077Z,12.05
2018-10-04T18:35:09.411Z,12.13
2018-10-04T18:40:13.456Z,12.20
2018-10-04T18:45:22.280Z,12.26
2018-10-04T18:50:25.824Z,12.23
2018-10-04T18:55:29.104Z,12.19
2018-10-04T19:00:32.852Z,12.18
2018-10-04T19:05:36.081Z,12.21
2018-10-04T19:10:39.365Z,12.23
2018-10-04T19:15:42.668Z,12.26
2018-10-04T19:20:45.859Z,12.29
2018-10-04T19:25:49.279Z,12.30
2018-10-04T19:30:52.810Z,12.33
2018-10-04T19:36:07.641Z,12.29
2018-10-04T19:41:12.696Z,12.29
2018-10-04T19:46:16.653Z,12.26
2018-10-04T19:51:27.911Z,12.24
2018-10-04T19:56:38.805Z,12.27
2018-10-04T20:01:42.132Z,12.29
2018-10-04T20:06:54.200Z,12.30
2018-10-04T20:12:08.584Z,12.29
2018-10-04T20:17:12.893Z,12.26
2018-10-04T20:22:16.044Z,12.25
2018-10-04T20:27:19.232Z,12.26
2018-10-04T20:32:22.430Z,12.26
2018-10-04T20:37:25.688Z,12.28
2018-10-04T20:42:28.858Z,12.26
2018-10-04T20:47:32.222Z,12.25
2018-10-04T20:52:35.556Z,12.25
2018-10-04T20:57:38.761Z,12.24
2018-10-04T21:02:42.070Z,12.23
2018-10-04T21:07:45.316Z,12.22
2018-10-04T21:12:48.780Z,12.23
2018-10-04T21:17:51.914Z,12.20
2018-10-04T21:22:55.116Z,12.21
2018-10-04T21:28:00.220Z,12.21
2018-10-04T21:33:03.478Z,12.18
2018-10-04T21:38:06.821Z,12.12
2018-10-04T21:43:10.010Z,12.11
2018-10-04T21:48:13.259Z,12.10
2018-10-04T21:53:16.416Z,12.07
2018-10-04T21:58:19.611Z,12.05
2018-10-04T22:03:22.939Z,12.03
2018-10-04T22:08:26.157Z,12.06
2018-10-04T22:13:29.359Z,12.02
2018-10-04T22:18:32.508Z,12.04
2018-10-04T22:23:35.834Z,12.04
2018-10-04T22:28:39.023Z,11.99
2018-10-04T22:33:42.604Z,11.94
2018-10-04T22:38:45.841Z,11.76
2018-10-04T22:43:48.982Z,11.43
2018-10-04T22:48:52.137Z,11.01
2018-10-04T22:53:55.336Z,10.61
2018-10-04T22:58:58.576Z,10.27
2018-10-04T23:04:01.691Z,9.89
2018-10-04T23:09:05.964Z,9.69
2018-10-04T23:14:09.191Z,9.56
2018-10-04T23:19:12.416Z,9.42
2018-10-04T23:24:15.596Z,9.38
2018-10-04T23:29:18.853Z,9.33
2018-10-04T23:34:22.033Z,9.31
2018-10-04T23:39:25.203Z,9.18
2018-10-04T23:44:28.525Z,9.07
2018-10-04T23:49:31.629Z,9.12
2018-10-04T23:54:34.878Z,9.10
2018-10-04T23:59:38.092Z,9.12
